Airfield :
LOGIN :

Register | Disclaimer

   EN    FR    IT 

 










Legend :    VFR   Marginal VFR   IFR   Intensive IFR   Very Intensive IFR
Visi :
Ceiling :
>= 8 km
>= 3000ft
5 to 8 km
1000 to 3000 ft
1500m to 5 km
500 to 1000 ft
800 to 1500m
200 to 500 ft
< 800m
< 200 ft
Symbols :   Thunderstorms  Fog  Heavy snow  Heavy precipitations  Wind > 20 kt
SIGMETs :     Misc.  Thunderstorms  Icing  Turbulence  Mountain Waves  Volcanic Ashes







- Airport Elevation : 600 ft
- IATA code : VIE


LOWW - Vienna Schwechat

CURRENT METAR :
  • 251920Z 22005KT 190V270 9999 FEW060CB BKN120 22/11 Q1010 NOSIG

EXPIRED METARs :
  • 251820Z 23003KT CAVOK 22/11 Q1010 NOSIG
  • 251750Z 19005KT CAVOK 22/12 Q1009 NOSIG
  • 251720Z 21004KT 180V250 9999 FEW060TCU BKN350 24/13 Q1009 NOSIG
  • 251650Z 25005KT 230V290 9999 FEW060CB BKN350 25/11 Q1009 NOSIG

TAF TAF LOWW
Valid from the 25 at 18:00 until the 27 at 00:00 UTC


251715Z 2518/2624 28007KT CAVOK TX23/2518Z TN09/2700Z
TEMPO 2518/2600 20005KT
FM260000 32010KT 9999 -RA SCT050 BKN080
TEMPO 2604/2618 34015KT 6000 SHRA SCT030 OVC050
FM262000 29008KT CAVOK
No reported NOTAMs for that airfield.
1 SIGMET reported for the Wien FIR (LOVV) :
 
Squall lined thunderstorms
LOVV SIGMET 1 VALID 251953/252050 LOWW
LOVV WIEN FIR SQL TS OBS WI N4810 E01710 - N4745 E01710 - N4725 E01605 - N4745 E01540 - N4810 E01620 - N4810 E01710 TOP FL350 STNR NC=



MET'MAP, your aeronautical weather chart ! - Copyright ORBIFLY December 2007 - Disclaimer

ORBIFLY MET'MAP TEAM :

Programming & Development : Alexandra Zaïnal
Concept & Development : Baudouin d'Aumeries
Co-Development & Prog : Marc-Olivier Méhu
Technical & hardware support : Manuel Goepfert

Contact : metmap@orbifly.com




SOURCES & CREDITS :

   NOAA